Terminal Aerodrome Forecast
Issued by NWS

Current Version | Previous Version | Text Only | Print | Product List | Glossary On
Versions: 1 2 3 4 5 6 7 8 9 10 11 12 13 14 15
000
FTAK31 PANC 301131
TAFADU
TAF
PADU 301131Z 3012/3112 11005KT P6SM BKN070
     FM301400 20008KT 6SM BR BKN035
     FM302000 19010KT P6SM SCT015 BKN030
     FM310100 19014KT 6SM -RA BKN020 OVC030
     FM310600 20011KT 4SM -RA BR BKN007=

USA.gov is the U.S. government's official web portal to all federal, state and local government web resources and services.